sensor_id;sensor_type;location;lat;lon;timestamp;P1;durP1;ratioP1;P2;durP2;ratioP2
19587;SDS011;9940;47.252;8.696;2023-05-20T00:01:08;10.13;;;6.63;;
19587;SDS011;9940;47.252;8.696;2023-05-20T00:03:36;10.38;;;6.47;;
19587;SDS011;9940;47.252;8.696;2023-05-20T00:06:03;10.48;;;6.75;;
19587;SDS011;9940;47.252;8.696;2023-05-20T00:08:29;9.32;;;6.30;;
19587;SDS011;9940;47.252;8.696;2023-05-20T00:10:57;12.80;;;6.82;;
19587;SDS011;9940;47.252;8.696;2023-05-20T00:13:23;11.13;;;6.82;;
19587;SDS011;9940;47.252;8.696;2023-05-20T00:15:48;11.18;;;6.55;;
19587;SDS011;9940;47.252;8.696;2023-05-20T00:18:16;10.27;;;6.72;;
19587;SDS011;9940;47.252;8.696;2023-05-20T00:20:44;13.35;;;6.50;;
19587;SDS011;9940;47.252;8.696;2023-05-20T00:23:12;10.10;;;6.78;;
19587;SDS011;9940;47.252;8.696;2023-05-20T00:25:37;10.80;;;6.65;;
19587;SDS011;9940;47.252;8.696;2023-05-20T00:28:03;15.30;;;7.18;;
19587;SDS011;9940;47.252;8.696;2023-05-20T00:30:31;11.32;;;6.78;;
19587;SDS011;9940;47.252;8.696;2023-05-20T00:32:56;12.35;;;7.20;;
19587;SDS011;9940;47.252;8.696;2023-05-20T00:35:22;13.13;;;7.32;;
19587;SDS011;9940;47.252;8.696;2023-05-20T00:37:47;11.52;;;6.65;;
19587;SDS011;9940;47.252;8.696;2023-05-20T00:40:16;11.85;;;7.47;;
19587;SDS011;9940;47.252;8.696;2023-05-20T00:42:42;13.77;;;7.93;;
19587;SDS011;9940;47.252;8.696;2023-05-20T00:45:10;11.57;;;7.43;;
19587;SDS011;9940;47.252;8.696;2023-05-20T00:47:35;12.90;;;7.45;;
19587;SDS011;9940;47.252;8.696;2023-05-20T00:50:03;12.75;;;6.90;;
19587;SDS011;9940;47.252;8.696;2023-05-20T00:52:30;13.88;;;8.05;;
19587;SDS011;9940;47.252;8.696;2023-05-20T00:54:58;10.38;;;7.32;;
19587;SDS011;9940;47.252;8.696;2023-05-20T00:57:24;11.88;;;7.20;;
19587;SDS011;9940;47.252;8.696;2023-05-20T00:59:50;12.35;;;7.47;;
19587;SDS011;9940;47.252;8.696;2023-05-20T01:02:16;10.82;;;7.30;;
19587;SDS011;9940;47.252;8.696;2023-05-20T01:04:42;12.43;;;7.47;;
19587;SDS011;9940;47.252;8.696;2023-05-20T01:07:11;12.88;;;7.90;;
19587;SDS011;9940;47.252;8.696;2023-05-20T01:09:41;12.50;;;7.43;;
19587;SDS011;9940;47.252;8.696;2023-05-20T01:12:22;17.50;;;7.72;;
19587;SDS011;9940;47.252;8.696;2023-05-20T01:15:07;14.13;;;7.80;;
19587;SDS011;9940;47.252;8.696;2023-05-20T01:17:40;13.07;;;7.90;;
19587;SDS011;9940;47.252;8.696;2023-05-20T01:20:11;12.55;;;7.93;;
19587;SDS011;9940;47.252;8.696;2023-05-20T01:22:38;12.90;;;8.00;;
19587;SDS011;9940;47.252;8.696;2023-05-20T01:25:23;15.80;;;8.50;;
19587;SDS011;9940;47.252;8.696;2023-05-20T01:27:51;14.05;;;7.95;;
19587;SDS011;9940;47.252;8.696;2023-05-20T01:30:21;18.52;;;7.70;;
19587;SDS011;9940;47.252;8.696;2023-05-20T01:32:54;15.85;;;8.00;;
19587;SDS011;9940;47.252;8.696;2023-05-20T01:35:25;14.40;;;8.00;;
19587;SDS011;9940;47.252;8.696;2023-05-20T01:37:51;13.35;;;7.68;;
19587;SDS011;9940;47.252;8.696;2023-05-20T01:40:17;16.73;;;8.00;;
19587;SDS011;9940;47.252;8.696;2023-05-20T01:42:43;15.32;;;7.32;;
19587;SDS011;9940;47.252;8.696;2023-05-20T01:45:10;16.55;;;8.57;;
19587;SDS011;9940;47.252;8.696;2023-05-20T01:47:36;13.00;;;7.97;;
19587;SDS011;9940;47.252;8.696;2023-05-20T01:50:02;15.27;;;7.53;;
19587;SDS011;9940;47.252;8.696;2023-05-20T01:52:28;14.07;;;7.65;;
19587;SDS011;9940;47.252;8.696;2023-05-20T01:54:53;11.88;;;7.35;;
19587;SDS011;9940;47.252;8.696;2023-05-20T01:57:20;12.07;;;7.80;;
19587;SDS011;9940;47.252;8.696;2023-05-20T01:59:46;15.32;;;6.95;;
19587;SDS011;9940;47.252;8.696;2023-05-20T02:02:15;14.70;;;7.47;;
19587;SDS011;9940;47.252;8.696;2023-05-20T02:04:44;16.23;;;8.30;;
19587;SDS011;9940;47.252;8.696;2023-05-20T02:07:17;17.73;;;8.18;;
19587;SDS011;9940;47.252;8.696;2023-05-20T02:09:43;12.27;;;7.55;;
19587;SDS011;9940;47.252;8.696;2023-05-20T02:12:13;14.55;;;7.78;;
19587;SDS011;9940;47.252;8.696;2023-05-20T02:14:45;14.68;;;8.10;;
19587;SDS011;9940;47.252;8.696;2023-05-20T02:17:12;15.65;;;7.40;;
19587;SDS011;9940;47.252;8.696;2023-05-20T02:19:40;13.77;;;8.18;;
19587;SDS011;9940;47.252;8.696;2023-05-20T02:22:08;14.65;;;8.02;;
19587;SDS011;9940;47.252;8.696;2023-05-20T02:24:34;14.88;;;7.88;;
19587;SDS011;9940;47.252;8.696;2023-05-20T02:27:00;16.27;;;8.10;;
19587;SDS011;9940;47.252;8.696;2023-05-20T02:29:28;15.02;;;7.93;;
19587;SDS011;9940;47.252;8.696;2023-05-20T02:31:54;14.18;;;7.75;;
19587;SDS011;9940;47.252;8.696;2023-05-20T02:34:22;13.30;;;7.57;;
19587;SDS011;9940;47.252;8.696;2023-05-20T02:36:50;18.27;;;8.43;;
19587;SDS011;9940;47.252;8.696;2023-05-20T02:39:18;16.75;;;8.18;;
19587;SDS011;9940;47.252;8.696;2023-05-20T02:41:44;15.70;;;8.15;;
19587;SDS011;9940;47.252;8.696;2023-05-20T02:44:09;15.05;;;8.38;;
19587;SDS011;9940;47.252;8.696;2023-05-20T02:46:35;17.90;;;8.35;;
19587;SDS011;9940;47.252;8.696;2023-05-20T02:49:06;15.23;;;8.02;;
19587;SDS011;9940;47.252;8.696;2023-05-20T02:51:31;13.52;;;8.07;;
19587;SDS011;9940;47.252;8.696;2023-05-20T02:53:57;14.23;;;7.50;;
19587;SDS011;9940;47.252;8.696;2023-05-20T02:56:25;14.68;;;8.07;;
19587;SDS011;9940;47.252;8.696;2023-05-20T02:58:51;15.82;;;7.90;;
19587;SDS011;9940;47.252;8.696;2023-05-20T03:01:16;16.90;;;7.95;;
19587;SDS011;9940;47.252;8.696;2023-05-20T03:03:42;15.02;;;8.10;;
19587;SDS011;9940;47.252;8.696;2023-05-20T03:06:07;16.05;;;8.52;;
19587;SDS011;9940;47.252;8.696;2023-05-20T03:08:33;15.82;;;8.05;;
19587;SDS011;9940;47.252;8.696;2023-05-20T03:11:00;15.95;;;8.02;;
19587;SDS011;9940;47.252;8.696;2023-05-20T03:13:25;12.85;;;7.55;;
19587;SDS011;9940;47.252;8.696;2023-05-20T03:15:51;14.45;;;7.82;;
19587;SDS011;9940;47.252;8.696;2023-05-20T03:18:20;15.23;;;8.25;;
19587;SDS011;9940;47.252;8.696;2023-05-20T03:20:46;18.02;;;8.05;;
19587;SDS011;9940;47.252;8.696;2023-05-20T03:23:11;16.40;;;8.32;;
19587;SDS011;9940;47.252;8.696;2023-05-20T03:25:39;14.52;;;7.97;;
19587;SDS011;9940;47.252;8.696;2023-05-20T03:28:05;13.82;;;7.22;;
19587;SDS011;9940;47.252;8.696;2023-05-20T03:30:33;13.55;;;7.72;;
19587;SDS011;9940;47.252;8.696;2023-05-20T03:33:01;13.88;;;8.00;;
19587;SDS011;9940;47.252;8.696;2023-05-20T03:35:27;18.40;;;8.10;;
19587;SDS011;9940;47.252;8.696;2023-05-20T03:37:55;15.93;;;8.30;;
19587;SDS011;9940;47.252;8.696;2023-05-20T03:40:22;16.70;;;8.75;;
19587;SDS011;9940;47.252;8.696;2023-05-20T03:42:48;16.20;;;8.70;;
19587;SDS011;9940;47.252;8.696;2023-05-20T03:45:16;18.00;;;9.45;;
19587;SDS011;9940;47.252;8.696;2023-05-20T03:47:47;18.70;;;8.82;;
19587;SDS011;9940;47.252;8.696;2023-05-20T03:50:15;16.00;;;8.52;;
19587;SDS011;9940;47.252;8.696;2023-05-20T03:52:40;16.00;;;8.38;;
19587;SDS011;9940;47.252;8.696;2023-05-20T03:55:06;19.55;;;9.13;;
19587;SDS011;9940;47.252;8.696;2023-05-20T03:57:32;19.20;;;9.43;;
19587;SDS011;9940;47.252;8.696;2023-05-20T04:00:00;13.55;;;7.68;;
19587;SDS011;9940;47.252;8.696;2023-05-20T04:02:29;18.80;;;9.38;;
19587;SDS011;9940;47.252;8.696;2023-05-20T04:04:57;18.27;;;8.93;;
19587;SDS011;9940;47.252;8.696;2023-05-20T04:07:25;17.05;;;8.75;;
19587;SDS011;9940;47.252;8.696;2023-05-20T04:09:54;14.85;;;8.30;;
19587;SDS011;9940;47.252;8.696;2023-05-20T04:12:19;14.90;;;8.75;;
19587;SDS011;9940;47.252;8.696;2023-05-20T04:14:45;20.23;;;8.77;;
19587;SDS011;9940;47.252;8.696;2023-05-20T04:17:13;14.63;;;8.45;;
19587;SDS011;9940;47.252;8.696;2023-05-20T04:19:39;19.90;;;9.27;;
19587;SDS011;9940;47.252;8.696;2023-05-20T04:22:08;19.00;;;8.90;;
19587;SDS011;9940;47.252;8.696;2023-05-20T04:24:34;16.05;;;9.40;;
19587;SDS011;9940;47.252;8.696;2023-05-20T04:27:05;17.10;;;9.40;;
19587;SDS011;9940;47.252;8.696;2023-05-20T04:29:31;13.95;;;8.68;;
19587;SDS011;9940;47.252;8.696;2023-05-20T04:31:58;17.00;;;9.18;;
19587;SDS011;9940;47.252;8.696;2023-05-20T04:34:27;21.73;;;9.88;;
19587;SDS011;9940;47.252;8.696;2023-05-20T04:36:53;17.15;;;9.27;;
19587;SDS011;9940;47.252;8.696;2023-05-20T04:39:21;16.75;;;9.13;;
19587;SDS011;9940;47.252;8.696;2023-05-20T04:41:47;17.30;;;9.60;;
19587;SDS011;9940;47.252;8.696;2023-05-20T04:44:13;15.55;;;8.88;;
19587;SDS011;9940;47.252;8.696;2023-05-20T04:46:38;16.15;;;8.48;;
19587;SDS011;9940;47.252;8.696;2023-05-20T04:49:10;14.05;;;8.20;;
19587;SDS011;9940;47.252;8.696;2023-05-20T04:51:35;15.77;;;8.60;;
19587;SDS011;9940;47.252;8.696;2023-05-20T04:54:01;17.65;;;8.25;;
19587;SDS011;9940;47.252;8.696;2023-05-20T04:56:26;15.98;;;9.48;;
19587;SDS011;9940;47.252;8.696;2023-05-20T04:58:54;15.75;;;8.80;;
19587;SDS011;9940;47.252;8.696;2023-05-20T05:01:20;16.25;;;8.90;;
19587;SDS011;9940;47.252;8.696;2023-05-20T05:03:48;17.88;;;8.55;;
19587;SDS011;9940;47.252;8.696;2023-05-20T05:06:13;15.02;;;9.00;;
19587;SDS011;9940;47.252;8.696;2023-05-20T05:08:39;15.25;;;8.90;;
19587;SDS011;9940;47.252;8.696;2023-05-20T05:11:05;15.10;;;8.85;;
19587;SDS011;9940;47.252;8.696;2023-05-20T05:13:30;18.80;;;8.88;;
19587;SDS011;9940;47.252;8.696;2023-05-20T05:15:59;19.70;;;9.43;;
19587;SDS011;9940;47.252;8.696;2023-05-20T05:18:25;15.95;;;9.20;;
19587;SDS011;9940;47.252;8.696;2023-05-20T05:23:45;15.30;;;8.38;;
19587;SDS011;9940;47.252;8.696;2023-05-20T05:26:13;16.05;;;8.30;;
19587;SDS011;9940;47.252;8.696;2023-05-20T05:28:40;18.10;;;8.80;;
19587;SDS011;9940;47.252;8.696;2023-05-20T05:31:08;19.70;;;10.00;;
19587;SDS011;9940;47.252;8.696;2023-05-20T05:33:34;17.90;;;9.48;;
19587;SDS011;9940;47.252;8.696;2023-05-20T05:36:00;18.88;;;9.40;;
19587;SDS011;9940;47.252;8.696;2023-05-20T05:38:26;14.10;;;8.25;;
19587;SDS011;9940;47.252;8.696;2023-05-20T05:40:52;16.70;;;8.90;;
19587;SDS011;9940;47.252;8.696;2023-05-20T05:43:17;15.65;;;9.73;;
19587;SDS011;9940;47.252;8.696;2023-05-20T05:45:43;18.70;;;8.80;;
19587;SDS011;9940;47.252;8.696;2023-05-20T05:48:11;16.67;;;8.43;;
19587;SDS011;9940;47.252;8.696;2023-05-20T05:50:37;16.23;;;8.90;;
19587;SDS011;9940;47.252;8.696;2023-05-20T05:53:05;15.65;;;8.65;;
19587;SDS011;9940;47.252;8.696;2023-05-20T05:55:30;20.80;;;9.35;;
19587;SDS011;9940;47.252;8.696;2023-05-20T05:57:56;15.23;;;8.60;;
19587;SDS011;9940;47.252;8.696;2023-05-20T06:00:21;15.00;;;8.95;;
19587;SDS011;9940;47.252;8.696;2023-05-20T06:02:47;15.75;;;8.95;;
19587;SDS011;9940;47.252;8.696;2023-05-20T06:05:13;15.93;;;8.85;;
19587;SDS011;9940;47.252;8.696;2023-05-20T06:07:41;18.23;;;9.80;;
19587;SDS011;9940;47.252;8.696;2023-05-20T06:10:09;16.00;;;9.02;;
19587;SDS011;9940;47.252;8.696;2023-05-20T06:12:35;15.63;;;9.80;;
19587;SDS011;9940;47.252;8.696;2023-05-20T06:15:05;15.10;;;9.25;;
19587;SDS011;9940;47.252;8.696;2023-05-20T06:17:34;17.35;;;9.38;;
19587;SDS011;9940;47.252;8.696;2023-05-20T06:19:59;19.52;;;9.73;;
19587;SDS011;9940;47.252;8.696;2023-05-20T06:22:25;15.95;;;9.48;;
19587;SDS011;9940;47.252;8.696;2023-05-20T06:24:54;17.17;;;9.38;;
19587;SDS011;9940;47.252;8.696;2023-05-20T06:27:20;17.98;;;9.63;;
19587;SDS011;9940;47.252;8.696;2023-05-20T06:29:48;17.25;;;9.10;;
19587;SDS011;9940;47.252;8.696;2023-05-20T06:32:14;16.08;;;9.27;;
19587;SDS011;9940;47.252;8.696;2023-05-20T06:34:39;15.50;;;9.45;;
19587;SDS011;9940;47.252;8.696;2023-05-20T06:37:07;19.05;;;9.77;;
19587;SDS011;9940;47.252;8.696;2023-05-20T06:39:35;17.20;;;9.18;;
19587;SDS011;9940;47.252;8.696;2023-05-20T06:42:01;17.88;;;9.02;;
19587;SDS011;9940;47.252;8.696;2023-05-20T06:44:27;18.35;;;9.80;;
19587;SDS011;9940;47.252;8.696;2023-05-20T06:46:52;23.50;;;9.68;;
19587;SDS011;9940;47.252;8.696;2023-05-20T06:49:18;18.20;;;9.55;;
19587;SDS011;9940;47.252;8.696;2023-05-20T06:51:48;17.00;;;9.63;;
19587;SDS011;9940;47.252;8.696;2023-05-20T06:54:13;16.63;;;9.63;;
19587;SDS011;9940;47.252;8.696;2023-05-20T06:56:39;16.20;;;9.95;;
19587;SDS011;9940;47.252;8.696;2023-05-20T06:59:04;17.15;;;9.57;;
19587;SDS011;9940;47.252;8.696;2023-05-20T07:01:30;16.58;;;8.95;;
19587;SDS011;9940;47.252;8.696;2023-05-20T07:03:56;15.02;;;8.45;;
19587;SDS011;9940;47.252;8.696;2023-05-20T07:06:26;17.60;;;9.43;;
19587;SDS011;9940;47.252;8.696;2023-05-20T07:08:52;17.20;;;9.38;;
19587;SDS011;9940;47.252;8.696;2023-05-20T07:11:17;15.70;;;9.93;;
19587;SDS011;9940;47.252;8.696;2023-05-20T07:13:43;17.83;;;9.15;;
19587;SDS011;9940;47.252;8.696;2023-05-20T07:16:10;15.77;;;9.65;;
19587;SDS011;9940;47.252;8.696;2023-05-20T07:18:36;16.38;;;9.80;;
19587;SDS011;9940;47.252;8.696;2023-05-20T07:21:02;15.98;;;8.80;;
19587;SDS011;9940;47.252;8.696;2023-05-20T07:23:27;16.85;;;8.93;;
19587;SDS011;9940;47.252;8.696;2023-05-20T07:25:58;16.17;;;9.55;;
19587;SDS011;9940;47.252;8.696;2023-05-20T07:28:23;15.80;;;9.05;;
19587;SDS011;9940;47.252;8.696;2023-05-20T07:30:49;16.95;;;9.15;;
19587;SDS011;9940;47.252;8.696;2023-05-20T07:33:19;14.68;;;8.70;;
19587;SDS011;9940;47.252;8.696;2023-05-20T07:35:44;15.27;;;9.43;;
19587;SDS011;9940;47.252;8.696;2023-05-20T07:38:13;18.20;;;10.00;;
19587;SDS011;9940;47.252;8.696;2023-05-20T07:40:41;15.95;;;10.02;;
19587;SDS011;9940;47.252;8.696;2023-05-20T07:43:07;17.80;;;9.27;;
19587;SDS011;9940;47.252;8.696;2023-05-20T07:45:36;15.70;;;10.35;;
19587;SDS011;9940;47.252;8.696;2023-05-20T07:48:04;16.00;;;9.35;;
19587;SDS011;9940;47.252;8.696;2023-05-20T07:50:32;16.90;;;8.80;;
19587;SDS011;9940;47.252;8.696;2023-05-20T07:52:58;16.67;;;9.10;;
19587;SDS011;9940;47.252;8.696;2023-05-20T07:55:23;18.63;;;9.52;;
19587;SDS011;9940;47.252;8.696;2023-05-20T07:57:49;17.77;;;9.70;;
19587;SDS011;9940;47.252;8.696;2023-05-20T08:00:17;16.30;;;9.63;;
19587;SDS011;9940;47.252;8.696;2023-05-20T08:02:45;14.23;;;8.88;;
19587;SDS011;9940;47.252;8.696;2023-05-20T08:05:13;16.42;;;9.35;;
19587;SDS011;9940;47.252;8.696;2023-05-20T08:07:41;19.55;;;10.13;;
19587;SDS011;9940;47.252;8.696;2023-05-20T08:10:07;16.80;;;9.65;;
19587;SDS011;9940;47.252;8.696;2023-05-20T08:12:33;19.25;;;10.50;;
19587;SDS011;9940;47.252;8.696;2023-05-20T08:14:59;14.73;;;9.50;;
19587;SDS011;9940;47.252;8.696;2023-05-20T08:17:25;18.75;;;9.73;;
19587;SDS011;9940;47.252;8.696;2023-05-20T08:19:50;18.92;;;9.65;;
19587;SDS011;9940;47.252;8.696;2023-05-20T08:22:16;14.70;;;8.75;;
19587;SDS011;9940;47.252;8.696;2023-05-20T08:24:41;17.15;;;8.98;;
19587;SDS011;9940;47.252;8.696;2023-05-20T08:27:07;15.55;;;7.45;;
19587;SDS011;9940;47.252;8.696;2023-05-20T08:29:32;15.48;;;8.25;;
19587;SDS011;9940;47.252;8.696;2023-05-20T08:31:58;15.73;;;8.80;;
19587;SDS011;9940;47.252;8.696;2023-05-20T08:34:26;15.77;;;8.77;;
19587;SDS011;9940;47.252;8.696;2023-05-20T08:36:52;13.98;;;8.00;;
19587;SDS011;9940;47.252;8.696;2023-05-20T08:39:21;14.68;;;8.82;;
19587;SDS011;9940;47.252;8.696;2023-05-20T08:41:47;15.07;;;9.65;;
19587;SDS011;9940;47.252;8.696;2023-05-20T08:44:15;14.52;;;8.98;;
19587;SDS011;9940;47.252;8.696;2023-05-20T08:46:43;16.63;;;8.27;;
19587;SDS011;9940;47.252;8.696;2023-05-20T08:49:10;13.20;;;8.23;;
19587;SDS011;9940;47.252;8.696;2023-05-20T08:51:36;13.90;;;8.18;;
19587;SDS011;9940;47.252;8.696;2023-05-20T08:54:02;12.65;;;8.35;;
19587;SDS011;9940;47.252;8.696;2023-05-20T08:56:28;15.25;;;8.48;;
19587;SDS011;9940;47.252;8.696;2023-05-20T08:59:00;13.55;;;9.02;;
19587;SDS011;9940;47.252;8.696;2023-05-20T09:01:28;14.18;;;7.85;;
19587;SDS011;9940;47.252;8.696;2023-05-20T09:03:53;13.27;;;8.15;;
19587;SDS011;9940;47.252;8.696;2023-05-20T09:06:21;13.50;;;8.13;;
19587;SDS011;9940;47.252;8.696;2023-05-20T09:08:48;15.77;;;8.30;;
19587;SDS011;9940;47.252;8.696;2023-05-20T09:11:15;12.40;;;7.50;;
19587;SDS011;9940;47.252;8.696;2023-05-20T09:13:40;13.00;;;7.93;;
19587;SDS011;9940;47.252;8.696;2023-05-20T09:16:08;14.25;;;8.27;;
19587;SDS011;9940;47.252;8.696;2023-05-20T09:18:37;13.88;;;7.75;;
19587;SDS011;9940;47.252;8.696;2023-05-20T09:21:03;12.73;;;8.30;;
19587;SDS011;9940;47.252;8.696;2023-05-20T09:23:30;13.50;;;7.68;;
19587;SDS011;9940;47.252;8.696;2023-05-20T09:25:59;11.73;;;7.50;;
19587;SDS011;9940;47.252;8.696;2023-05-20T09:28:28;14.10;;;8.57;;
19587;SDS011;9940;47.252;8.696;2023-05-20T09:30:59;13.98;;;8.98;;
19587;SDS011;9940;47.252;8.696;2023-05-20T09:33:26;15.30;;;8.68;;
19587;SDS011;9940;47.252;8.696;2023-05-20T09:36:02;12.98;;;8.40;;
19587;SDS011;9940;47.252;8.696;2023-05-20T09:38:29;12.55;;;8.60;;
19587;SDS011;9940;47.252;8.696;2023-05-20T09:41:05;11.25;;;7.95;;
19587;SDS011;9940;47.252;8.696;2023-05-20T09:43:33;12.07;;;8.38;;
19587;SDS011;9940;47.252;8.696;2023-05-20T09:46:06;12.63;;;8.43;;
19587;SDS011;9940;47.252;8.696;2023-05-20T09:48:34;15.02;;;8.85;;
19587;SDS011;9940;47.252;8.696;2023-05-20T09:51:04;15.57;;;8.27;;
19587;SDS011;9940;47.252;8.696;2023-05-20T09:53:30;15.13;;;8.38;;
19587;SDS011;9940;47.252;8.696;2023-05-20T09:55:56;15.63;;;9.05;;
19587;SDS011;9940;47.252;8.696;2023-05-20T09:58:24;12.55;;;8.25;;
19587;SDS011;9940;47.252;8.696;2023-05-20T10:00:55;12.85;;;8.65;;
19587;SDS011;9940;47.252;8.696;2023-05-20T10:03:24;12.23;;;8.10;;
19587;SDS011;9940;47.252;8.696;2023-05-20T10:06:03;15.30;;;8.50;;
19587;SDS011;9940;47.252;8.696;2023-05-20T10:11:21;13.40;;;8.13;;
19587;SDS011;9940;47.252;8.696;2023-05-20T10:18:57;14.60;;;9.05;;
19587;SDS011;9940;47.252;8.696;2023-05-20T10:24:06;14.27;;;8.10;;
19587;SDS011;9940;47.252;8.696;2023-05-20T10:26:35;15.93;;;9.20;;
19587;SDS011;9940;47.252;8.696;2023-05-20T10:29:13;14.75;;;8.35;;
19587;SDS011;9940;47.252;8.696;2023-05-20T10:31:47;12.77;;;8.40;;
19587;SDS011;9940;47.252;8.696;2023-05-20T10:34:15;13.75;;;8.10;;
19587;SDS011;9940;47.252;8.696;2023-05-20T10:36:45;11.07;;;7.90;;
19587;SDS011;9940;47.252;8.696;2023-05-20T10:39:30;14.38;;;9.00;;
19587;SDS011;9940;47.252;8.696;2023-05-20T10:42:08;13.35;;;8.38;;
19587;SDS011;9940;47.252;8.696;2023-05-20T10:44:40;13.50;;;8.82;;
19587;SDS011;9940;47.252;8.696;2023-05-20T10:47:10;14.50;;;8.88;;
19587;SDS011;9940;47.252;8.696;2023-05-20T10:49:39;13.32;;;8.75;;
19587;SDS011;9940;47.252;8.696;2023-05-20T10:52:08;14.57;;;9.38;;
19587;SDS011;9940;47.252;8.696;2023-05-20T10:54:45;12.65;;;8.70;;
19587;SDS011;9940;47.252;8.696;2023-05-20T10:57:17;13.65;;;8.90;;
19587;SDS011;9940;47.252;8.696;2023-05-20T10:59:47;14.38;;;8.52;;
19587;SDS011;9940;47.252;8.696;2023-05-20T11:02:14;13.32;;;9.02;;
19587;SDS011;9940;47.252;8.696;2023-05-20T11:04:44;14.02;;;8.85;;
19587;SDS011;9940;47.252;8.696;2023-05-20T11:07:23;10.95;;;8.15;;
19587;SDS011;9940;47.252;8.696;2023-05-20T11:09:58;12.38;;;8.27;;
19587;SDS011;9940;47.252;8.696;2023-05-20T11:12:26;11.30;;;7.40;;
19587;SDS011;9940;47.252;8.696;2023-05-20T11:14:52;13.35;;;9.10;;
19587;SDS011;9940;47.252;8.696;2023-05-20T11:17:18;11.65;;;8.40;;
19587;SDS011;9940;47.252;8.696;2023-05-20T11:19:44;13.05;;;8.77;;
19587;SDS011;9940;47.252;8.696;2023-05-20T11:22:11;12.90;;;9.52;;
19587;SDS011;9940;47.252;8.696;2023-05-20T11:24:39;14.80;;;9.70;;
19587;SDS011;9940;47.252;8.696;2023-05-20T11:27:05;14.55;;;9.65;;
19587;SDS011;9940;47.252;8.696;2023-05-20T11:29:36;12.15;;;8.88;;
19587;SDS011;9940;47.252;8.696;2023-05-20T11:32:07;11.48;;;8.43;;
19587;SDS011;9940;47.252;8.696;2023-05-20T11:34:38;11.15;;;8.80;;
19587;SDS011;9940;47.252;8.696;2023-05-20T11:37:07;12.80;;;8.43;;
19587;SDS011;9940;47.252;8.696;2023-05-20T11:39:33;10.85;;;8.23;;
19587;SDS011;9940;47.252;8.696;2023-05-20T11:41:59;14.00;;;9.75;;
19587;SDS011;9940;47.252;8.696;2023-05-20T11:44:25;13.35;;;9.05;;
19587;SDS011;9940;47.252;8.696;2023-05-20T11:46:58;11.48;;;8.30;;
19587;SDS011;9940;47.252;8.696;2023-05-20T11:49:27;12.02;;;8.95;;
19587;SDS011;9940;47.252;8.696;2023-05-20T11:51:57;13.18;;;9.38;;
19587;SDS011;9940;47.252;8.696;2023-05-20T11:54:23;11.65;;;8.20;;
19587;SDS011;9940;47.252;8.696;2023-05-20T11:56:50;13.15;;;9.00;;
19587;SDS011;9940;47.252;8.696;2023-05-20T11:59:18;15.25;;;9.32;;
19587;SDS011;9940;47.252;8.696;2023-05-20T12:01:43;11.75;;;8.10;;
19587;SDS011;9940;47.252;8.696;2023-05-20T12:04:09;11.15;;;7.93;;
19587;SDS011;9940;47.252;8.696;2023-05-20T12:06:38;11.68;;;8.30;;
19587;SDS011;9940;47.252;8.696;2023-05-20T12:09:05;13.15;;;8.38;;
19587;SDS011;9940;47.252;8.696;2023-05-20T12:11:34;12.02;;;7.90;;
19587;SDS011;9940;47.252;8.696;2023-05-20T12:14:04;9.50;;;7.53;;
19587;SDS011;9940;47.252;8.696;2023-05-20T12:16:32;11.30;;;8.38;;
19587;SDS011;9940;47.252;8.696;2023-05-20T12:19:01;11.95;;;7.85;;
19587;SDS011;9940;47.252;8.696;2023-05-20T12:21:30;9.90;;;7.40;;
19587;SDS011;9940;47.252;8.696;2023-05-20T12:23:57;10.70;;;7.43;;
19587;SDS011;9940;47.252;8.696;2023-05-20T12:26:26;12.95;;;7.72;;
19587;SDS011;9940;47.252;8.696;2023-05-20T12:28:52;10.55;;;8.45;;
19587;SDS011;9940;47.252;8.696;2023-05-20T12:31:18;13.80;;;9.80;;
19587;SDS011;9940;47.252;8.696;2023-05-20T12:33:44;10.18;;;8.50;;
19587;SDS011;9940;47.252;8.696;2023-05-20T12:36:12;12.65;;;11.20;;
19587;SDS011;9940;47.252;8.696;2023-05-20T12:38:38;13.07;;;10.70;;
19587;SDS011;9940;47.252;8.696;2023-05-20T12:41:04;12.85;;;11.38;;
19587;SDS011;9940;47.252;8.696;2023-05-20T12:43:30;12.77;;;11.57;;
19587;SDS011;9940;47.252;8.696;2023-05-20T12:45:56;15.93;;;9.20;;
19587;SDS011;9940;47.252;8.696;2023-05-20T12:48:21;10.85;;;9.85;;
19587;SDS011;9940;47.252;8.696;2023-05-20T12:50:47;15.18;;;10.85;;
19587;SDS011;9940;47.252;8.696;2023-05-20T12:53:13;10.85;;;9.48;;
19587;SDS011;9940;47.252;8.696;2023-05-20T12:55:38;10.00;;;8.90;;
19587;SDS011;9940;47.252;8.696;2023-05-20T12:58:07;11.48;;;10.38;;
19587;SDS011;9940;47.252;8.696;2023-05-20T13:00:35;10.05;;;9.07;;
19587;SDS011;9940;47.252;8.696;2023-05-20T13:03:03;10.95;;;9.35;;
19587;SDS011;9940;47.252;8.696;2023-05-20T13:05:28;10.68;;;8.95;;
19587;SDS011;9940;47.252;8.696;2023-05-20T13:07:56;11.68;;;8.95;;
19587;SDS011;9940;47.252;8.696;2023-05-20T13:10:22;11.43;;;8.75;;
19587;SDS011;9940;47.252;8.696;2023-05-20T13:12:50;12.90;;;8.20;;
19587;SDS011;9940;47.252;8.696;2023-05-20T13:15:19;10.57;;;8.63;;
19587;SDS011;9940;47.252;8.696;2023-05-20T13:17:44;11.65;;;8.73;;
19587;SDS011;9940;47.252;8.696;2023-05-20T13:20:12;10.35;;;8.57;;
19587;SDS011;9940;47.252;8.696;2023-05-20T13:22:38;10.60;;;8.40;;
19587;SDS011;9940;47.252;8.696;2023-05-20T13:25:04;13.57;;;8.40;;
19587;SDS011;9940;47.252;8.696;2023-05-20T13:27:30;11.55;;;8.48;;
19587;SDS011;9940;47.252;8.696;2023-05-20T13:29:56;11.02;;;8.02;;
19587;SDS011;9940;47.252;8.696;2023-05-20T13:32:21;10.60;;;7.47;;
19587;SDS011;9940;47.252;8.696;2023-05-20T13:34:47;11.32;;;8.07;;
19587;SDS011;9940;47.252;8.696;2023-05-20T13:37:15;11.13;;;9.02;;
19587;SDS011;9940;47.252;8.696;2023-05-20T13:39:43;10.25;;;8.32;;
19587;SDS011;9940;47.252;8.696;2023-05-20T13:42:12;9.90;;;7.97;;
19587;SDS011;9940;47.252;8.696;2023-05-20T13:44:37;10.98;;;7.82;;
19587;SDS011;9940;47.252;8.696;2023-05-20T13:47:03;9.98;;;7.85;;
19587;SDS011;9940;47.252;8.696;2023-05-20T13:49:31;9.88;;;8.35;;
19587;SDS011;9940;47.252;8.696;2023-05-20T13:51:59;8.98;;;7.70;;
19587;SDS011;9940;47.252;8.696;2023-05-20T13:54:25;11.85;;;8.70;;
19587;SDS011;9940;47.252;8.696;2023-05-20T13:56:51;12.38;;;8.90;;
19587;SDS011;9940;47.252;8.696;2023-05-20T13:59:17;10.13;;;7.95;;
19587;SDS011;9940;47.252;8.696;2023-05-20T14:01:42;10.32;;;9.20;;
19587;SDS011;9940;47.252;8.696;2023-05-20T14:04:09;10.73;;;9.25;;
19587;SDS011;9940;47.252;8.696;2023-05-20T14:06:36;13.88;;;10.05;;
19587;SDS011;9940;47.252;8.696;2023-05-20T14:09:05;11.43;;;9.93;;
19587;SDS011;9940;47.252;8.696;2023-05-20T14:11:33;12.85;;;10.18;;
19587;SDS011;9940;47.252;8.696;2023-05-20T14:13:58;10.38;;;8.98;;
19587;SDS011;9940;47.252;8.696;2023-05-20T14:16:24;10.05;;;8.40;;
19587;SDS011;9940;47.252;8.696;2023-05-20T14:18:52;11.35;;;8.77;;
19587;SDS011;9940;47.252;8.696;2023-05-20T14:21:22;10.77;;;8.50;;
19587;SDS011;9940;47.252;8.696;2023-05-20T14:23:48;11.55;;;8.05;;
19587;SDS011;9940;47.252;8.696;2023-05-20T14:26:16;10.93;;;7.88;;
19587;SDS011;9940;47.252;8.696;2023-05-20T14:28:44;10.43;;;7.65;;
19587;SDS011;9940;47.252;8.696;2023-05-20T14:31:09;9.70;;;7.78;;
19587;SDS011;9940;47.252;8.696;2023-05-20T14:33:35;10.00;;;8.50;;
19587;SDS011;9940;47.252;8.696;2023-05-20T14:36:00;10.52;;;8.32;;
19587;SDS011;9940;47.252;8.696;2023-05-20T14:38:27;9.20;;;7.28;;
19587;SDS011;9940;47.252;8.696;2023-05-20T14:40:52;9.63;;;7.25;;
19587;SDS011;9940;47.252;8.696;2023-05-20T14:43:18;8.90;;;6.78;;
19587;SDS011;9940;47.252;8.696;2023-05-20T14:45:46;11.95;;;6.93;;
19587;SDS011;9940;47.252;8.696;2023-05-20T14:48:12;12.82;;;6.68;;
19587;SDS011;9940;47.252;8.696;2023-05-20T14:50:43;9.07;;;6.85;;
19587;SDS011;9940;47.252;8.696;2023-05-20T14:53:08;8.63;;;6.63;;
19587;SDS011;9940;47.252;8.696;2023-05-20T14:55:34;12.05;;;8.85;;
19587;SDS011;9940;47.252;8.696;2023-05-20T14:58:00;9.43;;;7.18;;
19587;SDS011;9940;47.252;8.696;2023-05-20T15:00:28;13.10;;;8.18;;
19587;SDS011;9940;47.252;8.696;2023-05-20T15:02:53;9.30;;;6.93;;